createdAt,value
2017-08-02T00:00:15.798Z,82.70
2017-08-02T00:02:42.297Z,82.60
2017-08-02T00:05:08.563Z,83.10
2017-08-02T00:07:35.205Z,82.20
2017-08-02T00:10:01.782Z,82.20
2017-08-02T00:12:27.972Z,82.10
2017-08-02T00:14:54.141Z,82.40
2017-08-02T00:17:20.351Z,82.30
2017-08-02T00:20:01.562Z,82.50
2017-08-02T00:22:27.844Z,82.30
2017-08-02T00:24:54.143Z,82.50
2017-08-02T00:27:20.334Z,82.50
2017-08-02T00:29:48.072Z,82.60
2017-08-02T00:32:15.820Z,82.50
2017-08-02T00:34:42.698Z,83.10
2017-08-02T00:37:11.774Z,83.60
2017-08-02T00:39:39.928Z,83.50
2017-08-02T00:42:06.283Z,83.80
2017-08-02T00:44:32.606Z,83.90
2017-08-02T00:46:58.815Z,83.50
2017-08-02T00:49:25.136Z,83.60
2017-08-02T00:51:51.524Z,83.60
2017-08-02T00:54:18.443Z,83.60
2017-08-02T00:56:46.882Z,83.50
2017-08-02T00:59:13.793Z,83.80
2017-08-02T01:01:40.646Z,83.60
2017-08-02T01:04:06.846Z,83.80
2017-08-02T01:06:33.896Z,83.70
2017-08-02T01:09:00.865Z,83.50
2017-08-02T01:11:27.044Z,84.00
2017-08-02T01:13:54.699Z,83.90
2017-08-02T01:16:36.074Z,83.80
2017-08-02T01:19:02.282Z,83.60
2017-08-02T01:21:28.841Z,83.50
2017-08-02T01:23:56.114Z,83.50
2017-08-02T01:26:22.950Z,83.50
2017-08-02T01:28:49.191Z,83.60
2017-08-02T01:31:15.377Z,83.40
2017-08-02T01:33:41.550Z,84.00
2017-08-02T01:36:07.767Z,84.20
2017-08-02T01:38:34.706Z,83.40
2017-08-02T01:41:01.183Z,84.00
2017-08-02T01:43:28.391Z,84.80
2017-08-02T01:45:54.756Z,83.70
2017-08-02T01:48:20.961Z,83.50
2017-08-02T01:50:47.165Z,83.40
2017-08-02T01:53:14.141Z,84.00
2017-08-02T01:55:40.428Z,83.40
2017-08-02T01:58:07.386Z,83.90
2017-08-02T02:00:34.030Z,84.00
2017-08-02T02:03:01.843Z,83.60
2017-08-02T02:05:28.964Z,83.30
2017-08-02T02:07:58.199Z,83.40
2017-08-02T02:10:24.901Z,83.30
2017-08-02T02:12:52.334Z,83.20
2017-08-02T02:15:19.861Z,84.20
2017-08-02T02:17:46.345Z,84.10
2017-08-02T02:20:13.303Z,84.40
2017-08-02T02:22:40.202Z,84.60
2017-08-02T02:25:07.827Z,84.20
2017-08-02T02:27:35.429Z,83.60
2017-08-02T02:30:02.565Z,84.60
2017-08-02T02:32:28.902Z,83.10
2017-08-02T02:34:55.099Z,84.00
2017-08-02T02:37:21.534Z,84.00
2017-08-02T02:39:47.752Z,83.40
2017-08-02T02:42:14.589Z,83.10
2017-08-02T02:44:41.864Z,83.80
2017-08-02T02:47:10.149Z,83.90
2017-08-02T02:49:36.330Z,83.10
2017-08-02T02:52:02.556Z,83.10
2017-08-02T02:54:29.510Z,84.40
2017-08-02T02:56:56.788Z,83.90
2017-08-02T02:59:24.643Z,84.30
2017-08-02T03:04:23.403Z,85.00
2017-08-02T03:06:50.908Z,84.70
2017-08-02T03:09:17.074Z,84.70
2017-08-02T03:11:43.266Z,84.60
2017-08-02T03:14:13.411Z,83.80
2017-08-02T03:16:39.934Z,84.10
2017-08-02T03:19:07.332Z,84.00
2017-08-02T03:21:33.654Z,83.90
2017-08-02T03:24:00.764Z,84.70
2017-08-02T03:26:27.050Z,83.30
2017-08-02T03:28:53.258Z,82.90
2017-08-02T03:31:20.173Z,84.00
2017-08-02T03:33:46.338Z,84.30
2017-08-02T03:36:12.513Z,84.20
2017-08-02T03:38:38.690Z,84.40
2017-08-02T03:41:04.884Z,84.70
2017-08-02T03:43:31.053Z,85.00
2017-08-02T03:45:58.266Z,85.00
2017-08-02T03:48:24.483Z,84.60
2017-08-02T03:50:50.636Z,85.40
2017-08-02T03:53:16.841Z,85.10
2017-08-02T03:55:42.993Z,84.60
2017-08-02T03:58:09.147Z,84.50
2017-08-02T04:00:35.322Z,84.90
2017-08-02T04:03:01.479Z,84.80
2017-08-02T04:05:28.453Z,84.40
2017-08-02T04:07:55.019Z,84.60
2017-08-02T04:10:21.221Z,84.20
2017-08-02T04:12:47.406Z,84.20
2017-08-02T04:15:13.667Z,84.10
2017-08-02T04:17:39.831Z,84.20
2017-08-02T04:20:06.015Z,83.60
2017-08-02T04:22:32.188Z,84.20
2017-08-02T04:24:58.371Z,84.80
2017-08-02T04:27:24.577Z,84.80
2017-08-02T04:29:51.721Z,85.10
2017-08-02T04:32:17.902Z,84.50
2017-08-02T04:34:45.334Z,84.60
2017-08-02T04:37:12.309Z,84.60
2017-08-02T04:39:39.237Z,85.10
2017-08-02T04:42:05.446Z,84.30
2017-08-02T04:44:31.626Z,84.60
2017-08-02T04:46:58.601Z,84.50
2017-08-02T04:49:26.376Z,84.30
2017-08-02T04:51:52.583Z,83.90
2017-08-02T04:54:18.763Z,84.20
2017-08-02T04:56:44.966Z,84.00
2017-08-02T04:59:11.146Z,83.80
2017-08-02T05:01:37.714Z,84.10
2017-08-02T05:04:03.889Z,84.00
2017-08-02T05:06:30.114Z,84.00
2017-08-02T05:08:56.282Z,84.30
2017-08-02T05:11:22.434Z,83.60
2017-08-02T05:13:49.403Z,84.00
2017-08-02T05:16:15.571Z,82.90
2017-08-02T05:18:41.761Z,83.80
2017-08-02T05:21:07.940Z,83.30
2017-08-02T05:23:34.139Z,83.50
2017-08-02T05:26:01.101Z,84.40
2017-08-02T05:28:28.065Z,84.10
2017-08-02T05:30:54.286Z,83.20
2017-08-02T05:33:21.237Z,83.30
2017-08-02T05:35:47.456Z,83.50
2017-08-02T05:38:14.796Z,81.50
2017-08-02T05:40:41.738Z,81.70
2017-08-02T05:43:08.832Z,80.00
2017-08-02T05:45:35.023Z,78.40
2017-08-02T05:48:01.974Z,77.50
2017-08-02T05:50:28.904Z,76.00
2017-08-02T05:52:55.837Z,76.00
2017-08-02T05:55:22.034Z,75.10
2017-08-02T05:57:48.226Z,74.00
2017-08-02T06:00:15.166Z,76.50
2017-08-02T06:02:42.111Z,77.20
2017-08-02T06:05:09.179Z,77.90
2017-08-02T06:07:35.404Z,77.00
2017-08-02T06:10:01.673Z,76.90
2017-08-02T06:12:27.915Z,77.30
2017-08-02T06:14:54.101Z,77.50
2017-08-02T06:17:20.355Z,77.20
2017-08-02T06:19:46.579Z,78.10
2017-08-02T06:22:12.819Z,77.60
2017-08-02T06:24:39.053Z,77.70
2017-08-02T06:27:05.234Z,76.80
2017-08-02T06:29:31.427Z,76.80
2017-08-02T06:31:57.599Z,74.40
2017-08-02T06:34:23.780Z,73.60
2017-08-02T06:36:50.757Z,72.60
2017-08-02T06:39:16.915Z,70.20
2017-08-02T06:41:43.104Z,69.50
2017-08-02T06:44:10.113Z,68.40
2017-08-02T06:46:36.335Z,67.40
2017-08-02T06:49:02.543Z,67.60
2017-08-02T06:51:28.762Z,67.50
2017-08-02T06:53:54.914Z,66.80
2017-08-02T06:56:21.113Z,65.00
2017-08-02T06:58:48.431Z,65.50
2017-08-02T07:01:16.356Z,64.90
2017-08-02T07:03:42.597Z,64.90
2017-08-02T07:06:09.569Z,62.30
2017-08-02T07:08:35.786Z,62.10
2017-08-02T07:11:02.874Z,60.80
2017-08-02T07:13:29.422Z,61.10
2017-08-02T07:15:55.745Z,59.50
2017-08-02T07:18:21.916Z,58.90
2017-08-02T07:20:48.083Z,57.70
2017-08-02T07:23:15.034Z,58.10
2017-08-02T07:25:41.615Z,57.30
2017-08-02T07:28:07.798Z,57.80
2017-08-02T07:30:34.171Z,58.90
2017-08-02T07:33:01.116Z,60.30
2017-08-02T07:35:27.345Z,60.10
2017-08-02T07:37:53.532Z,59.60
2017-08-02T07:40:20.522Z,59.60
2017-08-02T07:42:46.745Z,57.50
2017-08-02T07:45:12.892Z,55.70
2017-08-02T07:47:39.097Z,53.80
2017-08-02T07:50:05.283Z,54.20
2017-08-02T07:52:31.475Z,52.90
2017-08-02T07:54:57.660Z,53.10
2017-08-02T07:57:24.637Z,52.60
2017-08-02T07:59:50.851Z,52.20
2017-08-02T08:02:17.055Z,51.40
2017-08-02T08:04:43.458Z,51.20
2017-08-02T08:07:09.657Z,50.80
2017-08-02T08:09:35.886Z,49.80
2017-08-02T08:12:02.096Z,49.90
2017-08-02T08:14:28.306Z,50.20
2017-08-02T08:16:55.303Z,53.20
2017-08-02T08:29:11.622Z,52.20
2017-08-02T08:31:39.373Z,50.60
2017-08-02T08:34:06.306Z,50.90
2017-08-02T08:36:32.574Z,52.50
2017-08-02T08:38:59.462Z,52.30
2017-08-02T08:41:25.650Z,52.20
2017-08-02T08:43:51.826Z,51.70
2017-08-02T08:46:18.043Z,52.80
2017-08-02T08:48:44.610Z,52.00
2017-08-02T08:51:11.594Z,52.60
2017-08-02T08:53:37.770Z,53.00
2017-08-02T08:56:03.951Z,51.80
2017-08-02T08:58:30.149Z,51.90
2017-08-02T09:00:57.080Z,51.60
2017-08-02T09:03:24.008Z,51.70
2017-08-02T09:05:50.166Z,51.30
2017-08-02T09:08:17.101Z,52.40
2017-08-02T09:10:43.236Z,51.70
2017-08-02T09:13:10.732Z,53.20
2017-08-02T09:15:37.043Z,49.40
2017-08-02T09:18:03.271Z,51.50
2017-08-02T09:20:30.265Z,48.90
2017-08-02T09:22:56.499Z,50.60
2017-08-02T09:25:22.699Z,50.10
2017-08-02T09:27:48.873Z,50.10
2017-08-02T09:30:15.055Z,49.80
2017-08-02T09:32:41.298Z,48.80
2017-08-02T09:35:07.567Z,49.80
2017-08-02T09:37:33.711Z,50.50
2017-08-02T09:40:00.628Z,50.90
2017-08-02T09:42:26.861Z,50.50
2017-08-02T09:44:53.051Z,50.40
2017-08-02T09:47:19.263Z,50.90
2017-08-02T09:49:45.476Z,51.40
2017-08-02T09:52:12.455Z,50.70
2017-08-02T09:54:38.736Z,50.30
2017-08-02T09:57:05.662Z,51.10
2017-08-02T09:59:31.858Z,50.50
2017-08-02T10:01:58.085Z,49.70
2017-08-02T10:04:24.303Z,49.60
2017-08-02T10:06:50.495Z,50.10
2017-08-02T10:09:16.684Z,48.80
2017-08-02T10:11:42.875Z,47.10
2017-08-02T10:14:09.038Z,48.20
2017-08-02T10:16:35.277Z,47.80
2017-08-02T10:19:01.523Z,48.80
2017-08-02T10:21:27.711Z,48.40
2017-08-02T10:23:54.760Z,47.10
2017-08-02T10:26:20.928Z,48.00
2017-08-02T10:28:47.140Z,47.70
2017-08-02T10:31:13.338Z,48.30
2017-08-02T10:33:40.427Z,46.70
2017-08-02T10:36:06.996Z,48.60
2017-08-02T10:38:33.970Z,49.40
2017-08-02T10:41:00.191Z,48.50
2017-08-02T10:43:28.094Z,49.70
2017-08-02T10:45:54.320Z,49.20
2017-08-02T10:48:22.518Z,49.20
2017-08-02T10:50:48.816Z,47.70
2017-08-02T10:53:15.047Z,46.10
2017-08-02T10:55:41.701Z,45.80
2017-08-02T10:58:08.128Z,46.00
2017-08-02T11:00:34.614Z,45.70
2017-08-02T11:03:01.525Z,46.70
2017-08-02T11:05:29.353Z,46.10
2017-08-02T11:07:55.543Z,45.00
2017-08-02T11:10:21.711Z,46.70
2017-08-02T11:12:47.985Z,45.70
2017-08-02T11:15:14.142Z,47.30
2017-08-02T11:17:40.401Z,45.20
2017-08-02T11:20:06.599Z,44.40
2017-08-02T11:22:33.532Z,46.20
2017-08-02T11:25:00.503Z,45.10
2017-08-02T11:27:26.696Z,46.60
2017-08-02T11:29:53.249Z,44.30
2017-08-02T11:32:20.217Z,43.70
2017-08-02T11:34:46.459Z,43.70
2017-08-02T11:37:12.683Z,44.70
2017-08-02T11:39:38.862Z,43.80
2017-08-02T11:42:05.064Z,45.00
2017-08-02T11:44:31.276Z,46.00
2017-08-02T11:46:58.227Z,45.10
2017-08-02T11:49:24.424Z,45.70
2017-08-02T11:51:50.603Z,46.20
2017-08-02T11:54:16.824Z,46.50
2017-08-02T11:56:43.013Z,46.30
2017-08-02T11:59:09.391Z,46.90
2017-08-02T12:01:35.612Z,46.20
2017-08-02T12:04:02.836Z,47.50
2017-08-02T12:06:29.189Z,48.20
2017-08-02T12:08:55.366Z,47.30
2017-08-02T12:11:22.379Z,45.20
2017-08-02T12:13:48.590Z,45.70
2017-08-02T12:16:14.806Z,43.80
2017-08-02T12:18:40.986Z,43.10
2017-08-02T12:21:07.349Z,46.30
2017-08-02T12:23:37.094Z,45.80
2017-08-02T12:26:03.315Z,46.30
2017-08-02T12:28:29.559Z,45.10
2017-08-02T12:30:55.816Z,48.70
2017-08-02T12:33:22.100Z,47.90
2017-08-02T12:35:48.315Z,48.20
2017-08-02T12:38:14.491Z,47.30
2017-08-02T12:40:41.651Z,46.40
2017-08-02T12:43:07.835Z,45.40
2017-08-02T12:45:35.130Z,45.40
2017-08-02T12:48:01.318Z,45.50
2017-08-02T12:50:27.869Z,45.30
2017-08-02T12:52:54.050Z,45.20
2017-08-02T12:55:21.195Z,45.90
2017-08-02T12:57:48.127Z,47.50
2017-08-02T13:00:14.336Z,46.30
2017-08-02T13:02:40.624Z,47.80
2017-08-02T13:05:07.052Z,47.80
2017-08-02T13:07:33.255Z,48.30
2017-08-02T13:10:00.262Z,48.70
2017-08-02T13:12:26.469Z,47.80
2017-08-02T13:14:52.669Z,48.40
2017-08-02T13:17:18.933Z,47.50
2017-08-02T13:19:45.108Z,45.10
2017-08-02T13:22:11.306Z,44.20
2017-08-02T13:24:37.559Z,41.90
2017-08-02T13:27:03.753Z,42.40
2017-08-02T13:29:29.980Z,42.50
2017-08-02T13:31:56.308Z,41.60
2017-08-02T13:34:22.463Z,42.00
2017-08-02T13:36:48.687Z,41.70
2017-08-02T13:39:14.892Z,41.30
2017-08-02T13:41:41.081Z,38.70
2017-08-02T13:44:08.040Z,40.00
2017-08-02T13:46:34.253Z,37.10
2017-08-02T13:49:00.758Z,38.90
2017-08-02T13:51:26.986Z,40.70
2017-08-02T13:53:53.162Z,39.50
2017-08-02T13:56:19.344Z,42.00
2017-08-02T13:58:45.565Z,41.90
2017-08-02T14:01:11.739Z,41.10
2017-08-02T14:03:39.203Z,40.00
2017-08-02T14:06:05.394Z,39.30
2017-08-02T14:08:31.586Z,38.70
2017-08-02T14:10:57.808Z,40.10
2017-08-02T14:13:23.966Z,40.50
2017-08-02T14:15:50.152Z,40.80
2017-08-02T14:18:16.344Z,43.10
2017-08-02T14:20:43.292Z,44.00
2017-08-02T14:23:09.499Z,43.60
2017-08-02T14:25:35.720Z,44.20
2017-08-02T14:28:01.919Z,44.10
2017-08-02T14:30:28.099Z,44.80
2017-08-02T14:32:54.311Z,45.30
2017-08-02T14:35:20.533Z,45.20
2017-08-02T14:37:46.754Z,44.50
2017-08-02T14:40:13.333Z,45.10
2017-08-02T14:42:40.238Z,44.60
2017-08-02T14:45:06.402Z,45.10
2017-08-02T14:47:32.974Z,45.70
2017-08-02T14:49:59.196Z,46.40
2017-08-02T14:52:25.388Z,46.10
2017-08-02T14:54:51.554Z,46.30
2017-08-02T14:57:17.811Z,46.10
2017-08-02T14:59:44.019Z,47.00
2017-08-02T15:02:10.237Z,44.90
2017-08-02T15:04:36.403Z,46.10
2017-08-02T15:07:02.595Z,47.60
2017-08-02T15:09:28.734Z,45.90
2017-08-02T15:11:54.946Z,46.40
2017-08-02T15:14:21.161Z,45.90
2017-08-02T15:16:47.346Z,47.50
2017-08-02T15:19:13.888Z,45.60
2017-08-02T15:21:40.097Z,46.90
2017-08-02T15:24:06.263Z,48.00
2017-08-02T15:26:32.453Z,47.30
2017-08-02T15:28:58.661Z,47.80
2017-08-02T15:31:25.664Z,48.60
2017-08-02T15:33:52.581Z,48.30
2017-08-02T15:36:18.867Z,48.90
2017-08-02T15:41:12.979Z,48.00
2017-08-02T15:43:39.929Z,47.90
2017-08-02T15:46:06.900Z,48.50
2017-08-02T15:48:33.217Z,47.20
2017-08-02T15:51:00.202Z,48.20
2017-08-02T15:53:26.476Z,49.80
2017-08-02T15:55:52.677Z,49.40
2017-08-02T15:58:19.602Z,49.60
2017-08-02T16:00:45.811Z,51.30
2017-08-02T16:03:12.003Z,50.00
2017-08-02T16:05:38.238Z,50.70
2017-08-02T16:08:04.433Z,51.20
2017-08-02T16:10:30.642Z,47.90
2017-08-02T16:12:56.931Z,49.40
2017-08-02T16:15:23.211Z,49.60
2017-08-02T16:17:49.446Z,51.20
2017-08-02T16:20:15.623Z,50.30
2017-08-02T16:22:41.799Z,50.90
2017-08-02T16:25:08.080Z,51.30
2017-08-02T16:27:34.341Z,51.20
2017-08-02T16:30:00.584Z,52.10
2017-08-02T16:32:26.824Z,51.10
2017-08-02T16:34:53.065Z,51.80
2017-08-02T16:37:20.019Z,52.40
2017-08-02T16:39:46.967Z,52.30
2017-08-02T16:42:13.841Z,51.20
2017-08-02T16:44:40.007Z,51.00
2017-08-02T16:47:06.183Z,53.20
2017-08-02T16:49:32.385Z,53.70
2017-08-02T16:51:59.324Z,52.50
2017-08-02T16:54:26.267Z,52.10
2017-08-02T16:56:52.440Z,53.90
2017-08-02T16:59:19.010Z,53.40
2017-08-02T17:01:45.195Z,53.10
2017-08-02T17:04:11.332Z,55.10
2017-08-02T17:06:37.495Z,52.20
2017-08-02T17:09:03.736Z,51.80
2017-08-02T17:11:29.960Z,52.70
2017-08-02T17:13:56.138Z,53.90
2017-08-02T17:16:23.104Z,54.40
2017-08-02T17:18:49.678Z,52.40
2017-08-02T17:21:16.008Z,51.50
2017-08-02T17:23:42.199Z,53.40
2017-08-02T17:26:08.817Z,53.60
2017-08-02T17:28:34.970Z,52.20
2017-08-02T17:31:01.565Z,51.80
2017-08-02T17:33:28.570Z,55.50
2017-08-02T17:35:54.817Z,53.30
2017-08-02T17:38:21.758Z,53.60
2017-08-02T17:41:03.144Z,54.50
2017-08-02T17:43:29.597Z,54.90
2017-08-02T17:45:56.166Z,55.30
2017-08-02T17:48:22.806Z,54.70
2017-08-02T17:50:49.034Z,54.70
2017-08-02T17:53:15.256Z,53.10
2017-08-02T17:55:41.429Z,54.60
2017-08-02T17:58:07.617Z,53.70
2017-08-02T18:00:33.850Z,55.90
2017-08-02T18:03:00.043Z,54.60
2017-08-02T18:05:27.031Z,55.10
2017-08-02T18:07:53.210Z,55.70
2017-08-02T18:10:19.442Z,56.80
2017-08-02T18:12:46.429Z,57.80
2017-08-02T18:15:12.657Z,58.00
2017-08-02T18:17:38.876Z,57.80
2017-08-02T18:20:05.080Z,58.60
2017-08-02T18:22:32.028Z,59.60
2017-08-02T18:24:58.937Z,60.70
2017-08-02T18:27:25.151Z,61.10
2017-08-02T18:29:51.379Z,62.70
2017-08-02T18:32:17.563Z,63.00
2017-08-02T18:34:45.322Z,64.30
2017-08-02T18:37:20.659Z,65.20
2017-08-02T18:39:46.894Z,64.80
2017-08-02T18:42:14.204Z,65.30
2017-08-02T18:44:40.405Z,65.70
2017-08-02T18:47:06.650Z,65.70
2017-08-02T18:49:32.874Z,65.80
2017-08-02T18:51:59.704Z,66.00
2017-08-02T18:54:27.812Z,66.00
2017-08-02T18:56:54.394Z,66.40
2017-08-02T18:59:20.978Z,65.60
2017-08-02T19:01:47.454Z,66.00
2017-08-02T19:04:15.073Z,67.30
2017-08-02T19:06:41.278Z,65.90
2017-08-02T19:09:07.464Z,66.20
2017-08-02T19:11:35.235Z,66.60
2017-08-02T19:14:01.463Z,65.80
2017-08-02T19:16:28.089Z,65.40
2017-08-02T19:18:55.531Z,65.50
2017-08-02T19:21:21.913Z,65.50
2017-08-02T19:23:49.030Z,65.80
2017-08-02T19:26:16.230Z,65.70
2017-08-02T19:28:42.564Z,64.90
2017-08-02T19:31:09.088Z,64.70
2017-08-02T19:33:36.458Z,64.30
2017-08-02T19:36:02.813Z,64.30
2017-08-02T19:38:29.232Z,64.60
2017-08-02T19:40:57.067Z,64.80
2017-08-02T19:43:24.565Z,64.60
2017-08-02T19:45:51.105Z,64.50
2017-08-02T19:48:17.448Z,63.70
2017-08-02T19:50:45.336Z,63.90
2017-08-02T19:53:12.501Z,64.30
2017-08-02T19:55:39.768Z,63.70
2017-08-02T19:58:06.010Z,64.10
2017-08-02T20:00:32.267Z,64.20
2017-08-02T20:02:59.583Z,64.10
2017-08-02T20:05:26.422Z,63.60
2017-08-02T20:07:53.632Z,64.60
2017-08-02T20:10:20.221Z,64.40
2017-08-02T20:12:46.444Z,64.40
2017-08-02T20:15:14.007Z,64.80
2017-08-02T20:17:40.206Z,64.00
2017-08-02T20:20:07.187Z,63.70
2017-08-02T20:22:33.402Z,63.70
2017-08-02T20:24:59.725Z,63.40
2017-08-02T20:27:26.889Z,64.70
2017-08-02T20:29:53.172Z,64.00
2017-08-02T20:32:19.551Z,63.60
2017-08-02T20:34:45.867Z,63.80
2017-08-02T20:37:13.085Z,64.10
2017-08-02T20:39:40.703Z,64.30
2017-08-02T20:42:09.162Z,64.30
2017-08-02T20:44:35.977Z,64.30
2017-08-02T20:47:04.763Z,64.40
2017-08-02T20:49:32.341Z,64.40
2017-08-02T20:51:59.602Z,64.60
2017-08-02T20:54:25.814Z,64.70
2017-08-02T20:56:52.248Z,64.70
2017-08-02T20:59:20.591Z,64.90
2017-08-02T21:01:47.133Z,64.80
2017-08-02T21:04:13.609Z,65.00
2017-08-02T21:06:40.692Z,64.60
2017-08-02T21:09:08.831Z,64.60
2017-08-02T21:11:36.206Z,65.60
2017-08-02T21:14:03.158Z,66.10
2017-08-02T21:16:30.088Z,66.00
2017-08-02T21:18:57.695Z,65.40
2017-08-02T21:21:25.685Z,65.50
2017-08-02T21:23:53.036Z,65.70
2017-08-02T21:26:20.655Z,65.60
2017-08-02T21:28:47.234Z,66.00
2017-08-02T21:40:58.509Z,66.50
2017-08-02T21:43:25.795Z,66.50
2017-08-02T21:45:52.015Z,66.50
2017-08-02T21:48:18.996Z,67.50
2017-08-02T21:50:45.195Z,66.60
2017-08-02T21:53:11.904Z,66.60
2017-08-02T21:55:38.183Z,66.40
2017-08-02T21:58:04.567Z,67.00
2017-08-02T22:00:31.068Z,66.10
2017-08-02T22:02:57.339Z,66.20
2017-08-02T22:05:23.498Z,67.00
2017-08-02T22:07:49.982Z,66.60
2017-08-02T22:10:16.592Z,66.30
2017-08-02T22:12:42.829Z,66.10
2017-08-02T22:15:09.009Z,66.30
2017-08-02T22:17:36.313Z,66.20
2017-08-02T22:20:04.538Z,65.80
2017-08-02T22:22:31.490Z,67.60
2017-08-02T22:24:59.155Z,66.40
2017-08-02T22:27:40.998Z,66.90
2017-08-02T22:30:07.183Z,66.40
2017-08-02T22:32:33.718Z,66.00
2017-08-02T22:35:00.712Z,67.00
2017-08-02T22:37:26.875Z,67.40
2017-08-02T22:39:53.445Z,67.60
2017-08-02T22:42:20.123Z,67.40
2017-08-02T22:44:46.359Z,67.00
2017-08-02T22:47:12.608Z,66.70
2017-08-02T22:49:38.912Z,67.00
2017-08-02T22:52:05.123Z,67.50
2017-08-02T22:54:31.299Z,67.30
2017-08-02T22:56:58.529Z,67.30
2017-08-02T22:59:24.773Z,68.10
2017-08-02T23:01:50.995Z,68.00
2017-08-02T23:04:17.177Z,68.60
2017-08-02T23:06:43.872Z,68.70
2017-08-02T23:09:10.106Z,68.60
2017-08-02T23:11:38.952Z,69.60
2017-08-02T23:14:06.084Z,68.10
2017-08-02T23:16:32.541Z,68.10
2017-08-02T23:18:58.746Z,68.70
2017-08-02T23:21:24.974Z,68.70
2017-08-02T23:23:51.250Z,68.20
2017-08-02T23:26:17.454Z,68.70
2017-08-02T23:28:43.660Z,68.60
2017-08-02T23:31:09.879Z,68.70
2017-08-02T23:33:36.144Z,68.60
2017-08-02T23:36:02.703Z,68.60
2017-08-02T23:38:28.928Z,69.30
2017-08-02T23:40:55.164Z,69.60
2017-08-02T23:43:21.471Z,70.10
2017-08-02T23:45:47.605Z,69.70
2017-08-02T23:48:13.815Z,70.40
2017-08-02T23:50:40.048Z,69.70
2017-08-02T23:53:06.217Z,69.90
2017-08-02T23:55:32.411Z,70.30
2017-08-02T23:57:58.619Z,69.60
